Time;durP1;ratioP1;P1;durP2;ratioP2;P2;SDS_P1;SDS_P2;PMS_P1;PMS_P2;Temp;Humidity;BMP_temperature;BMP_pressure;BME280_temperature;BME280_humidity;BME280_pressure;Samples;Min_cycle;Max_cycle;Signal;HPM_P1;HPM_P2
2021/08/17 00:02:29;;;;;;;7.10;4.27;;;13.30;1.00;;;;;;6288708;22;20420;-80
2021/08/17 00:06:03;;;;;;;8.00;4.43;;;13.30;1.00;;;;;;6277190;22;20420;-79
2021/08/17 00:09:30;;;;;;;;;;;;;;;;;;;;;
2021/08/17 00:49:48;;;;;;;7.20;3.73;;;13.70;1.00;;;;;;6260385;22;20365;-82
2021/08/17 01:04:04;;;;;;;3.60;3.30;;;13.70;1.00;;;;;;6217175;22;20362;-80
2021/08/17 01:07:12;;;;;;;8.13;3.40;;;13.80;1.00;;;;;;6213784;22;20369;-80
2021/08/17 01:17:49;;;;;;;7.03;3.80;;;13.80;1.00;;;;;;6370655;22;20395;-80
2021/08/17 01:24:49;;;;;;;8.20;4.40;;;13.80;1.00;;;;;;6368581;22;20366;-80
2021/08/17 01:28:13;;;;;;;;;;;;;;;;;;;;;
2021/08/17 01:31:24;;;;;;;5.97;3.77;;;13.90;1.00;;;;;;6366536;22;20420;-79
2021/08/17 01:45:59;;;;;;;6.80;3.60;;;14.10;1.00;;;;;;6331580;22;20397;-79
2021/08/17 01:55:51;;;;;;;7.90;3.77;;;13.90;1.00;;;;;;6243020;22;20402;-81
2021/08/17 02:16:31;;;;;;;;;;;;;;;;;;;;;
2021/08/17 02:20:09;;;;;;;6.23;3.63;;;13.80;1.00;;;;;;6342048;22;20385;-80
2021/08/17 02:23:31;;;;;;;;;;;;;;;;;;;;;
2021/08/17 02:29:56;;;;;;;5.23;3.60;;;13.90;1.00;;;;;;6211790;23;21191;-80
2021/08/17 02:32:44;;;;;;;9.13;4.30;;;14.00;1.00;;;;;;6207538;23;20397;-82
2021/08/17 02:35:45;;;;;;;4.50;3.10;;;14.00;1.00;;;;;;6210463;23;20448;-83
2021/08/17 02:39:09;;;;;;;4.47;2.77;;;14.00;1.00;;;;;;6182149;23;20440;-81
2021/08/17 02:45:41;;;;;;;5.10;3.07;;;14.10;1.00;;;;;;6202220;22;20409;-80
2021/08/17 03:06:43;;;;;;;5.83;3.10;;;14.10;1.00;;;;;;6160718;23;20405;-80
2021/08/17 03:17:08;;;;;;;;;;;;;;;;;;;;;
2021/08/17 03:20:53;;;;;;;5.30;3.10;;;14.30;1.00;;;;;;6240903;22;20455;-79
2021/08/17 03:24:47;;;;;;;5.00;3.07;;;14.30;1.00;;;;;;6311951;22;20383;-78
2021/08/17 03:27:56;;;;;;;6.93;3.60;;;14.30;1.00;;;;;;6250340;22;20599;-80
2021/08/17 03:31:01;;;;;;;5.03;3.20;;;14.30;1.00;;;;;;6292913;22;20390;-80
2021/08/17 03:38:00;;;;;;;5.70;3.57;;;14.30;1.00;;;;;;6327144;22;20478;-81
2021/08/17 03:40:59;;;;;;;5.30;4.20;;;14.30;1.00;;;;;;6232846;22;20416;-80
2021/08/17 03:44:01;;;;;;;6.87;4.30;;;14.40;1.00;;;;;;6268251;22;20390;-81
2021/08/17 03:47:27;;;;;;;7.10;3.90;;;14.50;1.00;;;;;;6273822;22;20409;-82
2021/08/17 03:50:48;;;;;;;5.10;3.40;;;14.50;1.00;;;;;;6230103;22;20387;-81
2021/08/17 03:54:17;;;;;;;6.60;4.90;;;14.50;1.00;;;;;;6227415;22;20408;-80
2021/08/17 04:18:54;;;;;;;5.47;3.47;;;14.80;1.00;;;;;;6167018;23;20417;-80
2021/08/17 04:25:28;;;;;;;6.10;3.57;;;14.90;1.00;;;;;;6024113;23;20444;-80
2021/08/17 04:28:04;;;;;;;6.00;3.90;;;14.90;1.00;;;;;;6228294;22;20371;-79
2021/08/17 04:30:31;;;;;;;6.97;4.50;;;15.00;1.00;;;;;;6315106;22;20409;-77
2021/08/17 04:32:59;;;;;;;4.50;3.80;;;15.00;1.00;;;;;;6312009;22;20403;-79
2021/08/17 04:35:28;;;;;;;4.87;3.40;;;15.00;1.00;;;;;;6275826;22;21228;-78
2021/08/17 04:37:57;;;;;;;6.43;3.43;;;15.00;1.00;;;;;;6300131;22;20418;-79
2021/08/17 04:40:25;;;;;;;6.53;3.47;;;15.00;1.00;;;;;;6303392;22;20962;-79
2021/08/17 04:42:56;;;;;;;6.57;4.27;;;15.10;1.00;;;;;;6276455;22;20418;-79
2021/08/17 04:45:44;;;;;;;7.37;3.47;;;15.10;1.00;;;;;;6271641;22;20385;-78
2021/08/17 04:48:14;;;;;;;7.50;4.23;;;15.00;1.00;;;;;;6276177;22;20411;-79
2021/08/17 04:50:48;;;;;;;5.57;3.57;;;15.00;1.00;;;;;;6276177;22;20469;-78
2021/08/17 04:53:17;;;;;;;10.07;4.23;;;15.10;1.00;;;;;;6302372;22;20867;-78
2021/08/17 04:55:44;;;;;;;6.63;3.73;;;15.10;1.00;;;;;;6274665;22;20926;-79
2021/08/17 04:58:14;;;;;;;5.70;3.80;;;15.10;1.00;;;;;;6273413;22;20473;-79
2021/08/17 05:00:50;;;;;;;5.27;3.23;;;15.20;1.00;;;;;;6278714;22;20461;-80
2021/08/17 05:03:22;;;;;;;6.77;3.87;;;15.20;1.00;;;;;;6305232;22;20486;-78
2021/08/17 05:05:52;;;;;;;7.63;4.10;;;15.20;1.00;;;;;;6302403;22;20747;-78
2021/08/17 05:08:22;;;;;;;6.90;3.70;;;15.20;1.00;;;;;;6264249;22;20403;-77
2021/08/17 05:10:52;;;;;;;7.13;3.70;;;15.30;1.00;;;;;;6290172;22;20487;-78
2021/08/17 05:13:24;;;;;;;7.07;3.60;;;15.30;1.00;;;;;;6300067;22;20889;-77
2021/08/17 05:15:51;;;;;;;7.13;4.20;;;15.30;1.00;;;;;;6300548;22;20411;-80
2021/08/17 05:18:18;;;;;;;5.10;3.20;;;15.30;1.00;;;;;;6303670;22;20438;-78
2021/08/17 05:20:46;;;;;;;7.47;4.50;;;15.30;1.00;;;;;;6276771;22;20489;-80
2021/08/17 05:23:13;;;;;;;6.37;3.90;;;15.40;1.00;;;;;;6261278;22;20375;-77
2021/08/17 05:25:42;;;;;;;7.47;4.17;;;15.40;1.00;;;;;;6304970;22;21019;-76
2021/08/17 05:28:09;;;;;;;4.73;3.40;;;15.40;1.00;;;;;;6284321;22;20383;-77
2021/08/17 05:30:37;;;;;;;5.47;3.67;;;15.40;1.00;;;;;;6295656;22;20478;-77
2021/08/17 05:33:04;;;;;;;7.93;4.47;;;15.40;1.00;;;;;;6314900;22;20417;-79
2021/08/17 05:35:34;;;;;;;6.27;3.90;;;15.40;1.00;;;;;;6279471;22;20481;-77
2021/08/17 05:38:08;;;;;;;11.53;4.30;;;15.50;1.00;;;;;;6288932;22;20412;-76
2021/08/17 05:41:14;;;;;;;13.63;8.10;;;15.50;1.00;;;;;;6322001;22;21369;-78
2021/08/17 05:44:22;;;;;;;5.50;3.23;;;15.50;1.00;;;;;;6289827;22;20379;-77
2021/08/17 05:47:09;;;;;;;7.73;3.90;;;15.60;1.00;;;;;;6284448;22;20407;-77
2021/08/17 05:50:17;;;;;;;5.50;3.77;;;15.60;1.00;;;;;;6285332;22;20398;-77
2021/08/17 05:53:10;;;;;;;7.33;4.70;;;15.50;1.00;;;;;;6311571;22;20411;-81
2021/08/17 05:59:36;;;;;;;6.57;4.27;;;15.30;1.00;;;;;;6312318;22;20403;-81
2021/08/17 06:02:44;;;;;;;6.37;3.80;;;15.30;1.00;;;;;;6299652;22;21129;-80
2021/08/17 06:05:57;;;;;;;7.00;4.13;;;15.30;1.00;;;;;;6292535;22;21443;-79
2021/08/17 06:08:42;;;;;;;8.20;4.60;;;15.40;1.00;;;;;;6315081;22;20380;-79
2021/08/17 06:11:24;;;;;;;8.93;4.00;;;15.40;1.00;;;;;;6311876;22;20461;-79
2021/08/17 06:14:28;;;;;;;7.00;3.90;;;15.40;1.00;;;;;;6311105;22;20371;-81
2021/08/17 06:17:08;;;;;;;7.37;4.60;;;15.20;1.00;;;;;;6314012;22;20446;-76
2021/08/17 06:19:51;;;;;;;7.20;4.23;;;15.20;1.00;;;;;;6284462;22;20398;-78
2021/08/17 06:22:27;;;;;;;7.90;4.50;;;15.20;1.00;;;;;;6280056;22;20435;-79
2021/08/17 06:25:08;;;;;;;7.17;4.50;;;15.20;1.00;;;;;;6280657;22;20404;-77
2021/08/17 06:27:56;;;;;;;10.13;4.60;;;15.20;1.00;;;;;;6285079;22;20533;-77
2021/08/17 06:30:58;;;;;;;8.13;4.73;;;15.40;1.00;;;;;;6280434;22;20368;-78
2021/08/17 06:33:43;;;;;;;6.33;4.37;;;15.50;1.00;;;;;;6292246;22;20513;-76
2021/08/17 06:39:24;;;;;;;6.90;4.27;;;15.80;1.00;;;;;;6286848;22;20412;-79
2021/08/17 06:42:06;;;;;;;7.47;4.60;;;15.90;1.00;;;;;;6284550;22;20435;-78
2021/08/17 06:45:05;;;;;;;10.67;4.80;;;15.90;1.00;;;;;;6280206;22;20414;-77
2021/08/17 06:47:52;;;;;;;12.00;4.50;;;15.90;1.00;;;;;;6307880;22;20410;-80
2021/08/17 06:50:54;;;;;;;5.53;4.10;;;15.90;1.00;;;;;;6283359;22;20409;-77
2021/08/17 06:53:37;;;;;;;8.30;4.83;;;15.80;1.00;;;;;;6287721;22;20926;-80
2021/08/17 06:56:26;;;;;;;8.23;4.30;;;15.70;1.00;;;;;;6299469;22;20422;-79
2021/08/17 06:59:18;;;;;;;9.27;5.20;;;15.60;1.00;;;;;;6280175;22;20394;-80
2021/08/17 07:02:39;;;;;;;8.83;4.70;;;15.60;1.00;;;;;;6307616;22;20435;-79
2021/08/17 07:05:44;;;;;;;10.03;5.20;;;15.60;1.00;;;;;;6293694;22;20386;-79
2021/08/17 07:08:39;;;;;;;11.57;4.83;;;15.60;1.00;;;;;;6335544;22;20445;-78
2021/08/17 07:14:21;;;;;;;11.60;5.33;;;15.70;1.00;;;;;;6275552;22;20381;-80
2021/08/17 07:17:31;;;;;;;8.53;4.63;;;15.80;1.00;;;;;;6302802;22;20492;-78
2021/08/17 07:20:25;;;;;;;7.77;4.60;;;15.90;1.00;;;;;;6284126;22;20498;-78
2021/08/17 07:23:29;;;;;;;8.83;4.10;;;16.00;1.00;;;;;;6295006;22;20412;-78
2021/08/17 07:26:28;;;;;;;9.67;3.67;;;16.10;1.00;;;;;;6281189;22;20409;-78
2021/08/17 07:29:51;;;;;;;9.57;4.17;;;16.20;1.00;;;;;;6282497;22;20388;-80
2021/08/17 07:32:43;;;;;;;;;;;;;;;;;;;;;
2021/08/17 07:35:22;;;;;;;11.70;4.10;;;16.50;1.00;;;;;;6307241;22;20369;-79
2021/08/17 07:38:39;;;;;;;6.37;3.57;;;16.60;1.00;;;;;;6308584;22;20439;-80
2021/08/17 07:44:38;;;;;;;7.63;4.30;;;16.80;1.00;;;;;;6335835;22;39145;-79
2021/08/17 07:57:39;;;;;;;7.10;3.70;;;16.90;1.00;;;;;;6245308;22;20400;-78
2021/08/17 08:03:43;;;;;;;6.40;3.47;;;17.10;1.00;;;;;;6311242;22;20431;-80
2021/08/17 08:06:42;;;;;;;5.67;3.50;;;17.00;1.00;;;;;;6340595;22;20390;-81
2021/08/17 08:09:15;;;;;;;8.57;3.50;;;17.00;1.00;;;;;;6311598;22;20376;-78
2021/08/17 08:12:13;;;;;;;8.30;3.80;;;17.10;1.00;;;;;;6312201;22;20372;-79
2021/08/17 08:14:53;;;;;;;10.53;4.13;;;17.20;1.00;;;;;;6314029;22;20474;-78
2021/08/17 08:17:44;;;;;;;7.60;4.70;;;17.00;1.00;;;;;;6302889;22;20426;-79
2021/08/17 08:26:33;;;;;;;9.30;3.70;;;16.20;1.00;;;;;;6324227;22;20913;-78
2021/08/17 08:32:13;;;;;;;5.30;3.80;;;16.10;1.00;;;;;;6310219;22;20370;-78
2021/08/17 08:34:56;;;;;;;6.57;3.40;;;16.10;1.00;;;;;;6327873;22;20700;-77
2021/08/17 08:37:38;;;;;;;6.47;2.50;;;16.00;1.00;;;;;;6303839;22;20392;-79
2021/08/17 08:40:14;;;;;;;5.83;3.10;;;16.10;1.00;;;;;;6337853;22;20401;-79
2021/08/17 08:42:50;;;;;;;6.13;3.30;;;16.20;1.00;;;;;;6312274;22;20541;-78
2021/08/17 08:45:25;;;;;;;7.23;3.90;;;16.30;1.00;;;;;;6337761;22;20372;-81
2021/08/17 08:48:01;;;;;;;6.33;3.30;;;16.50;1.00;;;;;;6342296;22;20392;-80
2021/08/17 08:50:57;;;;;;;6.00;2.87;;;16.60;1.00;;;;;;6340905;22;20375;-79
2021/08/17 08:53:50;;;;;;;7.30;3.67;;;16.80;1.00;;;;;;6339283;22;20411;-78
2021/08/17 08:56:31;;;;;;;6.33;3.23;;;16.90;1.00;;;;;;6312862;22;20490;-80
2021/08/17 08:59:37;;;;;;;3.93;2.50;;;16.80;1.00;;;;;;6333695;22;21103;-78
2021/08/17 09:02:14;;;;;;;5.63;2.77;;;16.70;1.00;;;;;;6116200;22;20396;-78
2021/08/17 09:05:02;;;;;;;5.83;3.60;;;16.80;1.00;;;;;;6308686;22;20473;-79
2021/08/17 09:07:54;;;;;;;8.83;3.00;;;16.80;1.00;;;;;;6347455;22;20424;-79
2021/08/17 09:13:19;;;;;;;6.50;2.90;;;16.50;1.00;;;;;;6293301;22;20406;-78
2021/08/17 09:16:04;;;;;;;6.20;3.77;;;16.50;1.00;;;;;;6339500;22;20391;-77
2021/08/17 09:19:06;;;;;;;6.07;2.93;;;16.50;1.00;;;;;;6341445;22;21039;-79
2021/08/17 09:21:45;;;;;;;6.07;3.63;;;16.50;1.00;;;;;;6340198;22;20468;-79
2021/08/17 09:24:24;;;;;;;5.20;3.00;;;16.60;1.00;;;;;;6311155;22;20504;-79
2021/08/17 09:26:56;;;;;;;5.43;3.70;;;16.70;1.00;;;;;;6322224;22;20422;-78
2021/08/17 09:29:47;;;;;;;6.57;3.40;;;16.70;1.00;;;;;;6340143;22;20416;-79
2021/08/17 09:32:23;;;;;;;6.80;4.33;;;16.80;1.00;;;;;;6326838;22;20407;-77
2021/08/17 09:35:00;;;;;;;6.60;3.40;;;16.70;1.00;;;;;;6341919;22;20407;-78
2021/08/17 09:37:45;;;;;;;7.23;3.47;;;16.70;1.00;;;;;;6313644;22;20370;-78
2021/08/17 09:40:31;;;;;;;9.20;3.40;;;16.80;1.00;;;;;;6340337;22;20899;-80
2021/08/17 09:43:26;;;;;;;6.17;3.43;;;17.00;1.00;;;;;;6341862;22;20428;-79
2021/08/17 09:46:16;;;;;;;5.53;4.03;;;17.10;1.00;;;;;;6315871;22;20376;-78
2021/08/17 09:49:00;;;;;;;7.50;4.03;;;17.20;1.00;;;;;;6346709;22;20399;-79
2021/08/17 09:51:47;;;;;;;10.60;4.67;;;17.30;1.00;;;;;;6332955;22;20971;-79
2021/08/17 09:54:20;;;;;;;6.23;3.80;;;17.30;1.00;;;;;;6342071;22;20492;-79
2021/08/17 09:56:59;;;;;;;6.00;3.83;;;17.10;1.00;;;;;;6314538;22;20409;-79
2021/08/17 10:02:31;;;;;;;9.93;4.20;;;17.20;1.00;;;;;;6319945;22;20447;-81
2021/08/17 10:08:01;;;;;;;7.63;4.23;;;17.20;1.00;;;;;;6339223;22;20346;-77
2021/08/17 10:10:34;;;;;;;7.67;4.30;;;17.10;1.00;;;;;;6341779;22;20409;-77
2021/08/17 10:13:19;;;;;;;8.17;4.10;;;17.20;1.00;;;;;;6339512;22;20470;-77
2021/08/17 10:15:58;;;;;;;10.23;3.60;;;17.20;1.00;;;;;;6341885;22;20411;-77
2021/08/17 10:18:27;;;;;;;8.20;3.60;;;17.20;1.00;;;;;;6338924;22;20355;-77
2021/08/17 10:21:01;;;;;;;9.07;4.17;;;17.30;1.00;;;;;;6337624;22;20415;-76
2021/08/17 10:24:05;;;;;;;5.67;3.60;;;17.30;1.00;;;;;;6363904;22;20587;-77
2021/08/17 10:27:36;;;;;;;6.43;4.00;;;17.50;1.00;;;;;;6360532;22;20527;-78
2021/08/17 10:30:27;;;;;;;9.57;3.70;;;17.60;1.00;;;;;;6225415;23;20408;-76
2021/08/17 10:33:10;;;;;;;6.40;4.10;;;17.70;1.00;;;;;;6199716;23;20421;-77
2021/08/17 10:36:10;;;;;;;7.07;3.80;;;17.90;1.00;;;;;;6321294;22;20375;-78
2021/08/17 10:39:34;;;;;;;8.20;3.60;;;18.20;1.00;;;;;;6364287;22;20370;-78
2021/08/17 10:42:33;;;;;;;5.23;3.30;;;18.30;1.00;;;;;;6335546;22;20393;-75
2021/08/17 10:45:45;;;;;;;8.27;4.33;;;18.60;1.00;;;;;;6364631;22;20392;-76
2021/08/17 10:48:59;;;;;;;6.47;3.50;;;19.20;1.00;;;;;;6336584;22;20410;-76
2021/08/17 10:51:59;;;;;;;3.73;2.73;;;19.90;1.00;;;;;;6330259;22;20415;-76
2021/08/17 10:54:43;;;;;;;10.20;4.27;;;20.00;1.00;;;;;;6322432;22;20413;-77
2021/08/17 10:57:26;;;;;;;12.03;3.40;;;19.40;1.00;;;;;;6365244;22;20358;-78
2021/08/17 11:00:05;;;;;;;8.47;3.53;;;19.00;1.00;;;;;;6362084;22;20435;-77
2021/08/17 11:03:46;;;;;;;8.17;3.37;;;18.40;1.00;;;;;;6356590;22;20436;-78
2021/08/17 11:06:51;;;;;;;9.17;3.03;;;18.00;1.00;;;;;;6319466;22;20401;-75
2021/08/17 11:09:22;;;;;;;6.20;2.87;;;17.50;1.00;;;;;;6242014;22;21278;-78
2021/08/17 11:12:08;;;;;;;4.50;2.97;;;17.40;1.00;;;;;;6325810;22;20420;-79
2021/08/17 11:14:47;;;;;;;5.03;3.13;;;17.50;1.00;;;;;;6341123;22;20397;-78
2021/08/17 11:17:41;;;;;;;6.50;2.53;;;17.80;1.00;;;;;;6337104;22;20422;-77
2021/08/17 11:20:10;;;;;;;7.23;2.87;;;18.10;1.00;;;;;;6312998;22;20404;-78
2021/08/17 11:22:51;;;;;;;4.90;2.70;;;18.10;1.00;;;;;;6311807;22;20409;-80
2021/08/17 11:25:43;;;;;;;5.67;2.80;;;18.10;1.00;;;;;;6343024;22;20501;-77
2021/08/17 11:28:57;;;;;;;7.83;2.93;;;17.80;1.00;;;;;;6307933;22;20377;-76
2021/08/17 11:31:59;;;;;;;8.73;3.70;;;17.20;1.00;;;;;;6328885;22;20378;-76
2021/08/17 11:34:39;;;;;;;7.83;3.67;;;16.50;1.00;;;;;;6354593;22;20421;-77
2021/08/17 11:37:13;;;;;;;6.83;3.40;;;16.10;1.00;;;;;;6342529;22;20956;-78
2021/08/17 11:39:49;;;;;;;5.87;3.30;;;15.90;1.00;;;;;;6314054;22;20551;-78
2021/08/17 11:42:30;;;;;;;7.23;3.30;;;15.70;1.00;;;;;;6307203;22;20553;-79
2021/08/17 11:45:05;;;;;;;7.57;3.10;;;15.50;1.00;;;;;;6339670;22;20413;-76
2021/08/17 11:47:46;;;;;;;6.10;3.50;;;15.40;1.00;;;;;;6338756;22;20422;-78
2021/08/17 11:50:24;;;;;;;10.13;4.33;;;15.40;1.00;;;;;;6343265;22;20496;-78
2021/08/17 11:52:59;;;;;;;6.60;4.13;;;15.40;1.00;;;;;;6336479;22;20391;-78
2021/08/17 11:55:48;;;;;;;7.00;4.10;;;15.50;1.00;;;;;;6333765;22;20429;-80
2021/08/17 11:58:37;;;;;;;6.77;4.33;;;15.60;1.00;;;;;;6305230;22;20836;-80
2021/08/17 12:01:57;;;;;;;8.20;4.93;;;15.90;1.00;;;;;;6307766;22;20499;-80
2021/08/17 12:04:31;;;;;;;6.90;4.17;;;16.00;1.00;;;;;;6283747;22;20502;-81
2021/08/17 12:07:30;;;;;;;7.97;4.47;;;16.30;1.00;;;;;;6333277;22;20405;-82
2021/08/17 12:10:18;;;;;;;7.47;4.20;;;16.50;1.00;;;;;;6307204;22;21270;-82
2021/08/17 12:13:12;;;;;;;4.10;3.50;;;16.90;1.00;;;;;;6323012;22;20749;-81
2021/08/17 12:15:53;;;;;;;7.10;4.03;;;17.70;1.00;;;;;;6311822;22;21524;-79
2021/08/17 12:18:26;;;;;;;6.90;3.73;;;18.30;1.00;;;;;;6326870;22;21188;-80
2021/08/17 12:21:05;;;;;;;7.90;4.20;;;18.50;1.00;;;;;;6339943;22;20393;-80
2021/08/17 12:23:43;;;;;;;6.10;3.27;;;18.80;1.00;;;;;;6338247;22;20411;-82
2021/08/17 12:26:18;;;;;;;3.70;2.97;;;18.80;1.00;;;;;;6348602;22;20380;-80
2021/08/17 12:29:24;;;;;;;8.87;3.80;;;18.60;1.00;;;;;;6316963;22;20853;-81
2021/08/17 12:32:23;;;;;;;4.57;2.87;;;18.50;1.00;;;;;;6342500;22;20431;-79
2021/08/17 12:34:55;;;;;;;6.63;4.10;;;18.30;1.00;;;;;;6315702;22;20383;-81
2021/08/17 12:37:43;;;;;;;9.17;3.80;;;18.00;1.00;;;;;;6315138;22;20392;-80
2021/08/17 12:40:37;;;;;;;6.20;4.93;;;17.70;1.00;;;;;;6312806;22;20393;-82
2021/08/17 12:43:23;;;;;;;8.00;4.20;;;17.60;1.00;;;;;;6325751;22;20500;-81
2021/08/17 12:45:56;;;;;;;8.30;4.17;;;17.70;1.00;;;;;;6313568;22;20427;-80
2021/08/17 12:48:39;;;;;;;7.70;5.07;;;17.90;1.00;;;;;;6313114;22;20420;-81
2021/08/17 12:51:06;;;;;;;8.03;3.97;;;18.30;1.00;;;;;;6317080;22;20454;-83
2021/08/17 12:53:43;;;;;;;10.20;3.70;;;18.50;1.00;;;;;;6320885;22;20509;-80
2021/08/17 12:56:13;;;;;;;6.73;3.83;;;18.70;1.00;;;;;;6317612;22;20389;-82
2021/08/17 12:58:51;;;;;;;8.30;3.80;;;18.60;1.00;;;;;;6319260;22;21221;-82
2021/08/17 13:01:23;;;;;;;8.57;3.77;;;18.50;1.00;;;;;;6304507;22;20404;-81
2021/08/17 13:03:51;;;;;;;5.63;3.00;;;18.60;1.00;;;;;;6347256;22;20417;-81
2021/08/17 13:06:23;;;;;;;10.33;3.60;;;18.90;1.00;;;;;;6332571;22;20361;-80
2021/08/17 13:08:59;;;;;;;5.93;3.30;;;19.00;1.00;;;;;;6332311;22;20427;-80
2021/08/17 13:11:32;;;;;;;5.43;2.60;;;18.80;1.00;;;;;;6332734;22;20404;-80
2021/08/17 13:13:59;;;;;;;5.47;3.43;;;18.50;1.00;;;;;;6337293;22;20391;-80
2021/08/17 13:16:32;;;;;;;5.10;3.43;;;18.10;1.00;;;;;;6366045;22;20391;-78
2021/08/17 13:19:17;;;;;;;8.37;3.20;;;17.80;1.00;;;;;;6364856;22;20385;-79
2021/08/17 13:21:54;;;;;;;5.83;3.27;;;17.60;1.00;;;;;;6363530;22;20639;-79
2021/08/17 13:24:28;;;;;;;5.00;2.73;;;17.40;1.00;;;;;;6337536;22;20395;-80
2021/08/17 13:27:06;;;;;;;6.43;3.30;;;17.20;1.00;;;;;;6331810;22;20385;-80
2021/08/17 13:29:38;;;;;;;5.50;2.87;;;17.20;1.00;;;;;;6343938;22;21200;-80
2021/08/17 13:32:10;;;;;;;11.20;4.07;;;17.20;1.00;;;;;;6345342;22;20477;-82
2021/08/17 13:34:42;;;;;;;6.03;3.00;;;17.20;1.00;;;;;;6313187;22;20423;-82
2021/08/17 13:37:18;;;;;;;9.13;3.97;;;17.30;1.00;;;;;;6341659;22;20395;-82
2021/08/17 13:39:47;;;;;;;5.47;3.60;;;17.30;1.00;;;;;;6340723;22;20404;-80
2021/08/17 13:42:30;;;;;;;8.43;3.97;;;17.20;1.00;;;;;;6341029;22;20375;-81
2021/08/17 13:45:02;;;;;;;7.00;3.43;;;17.10;1.00;;;;;;6353411;22;20408;-80
2021/08/17 13:47:35;;;;;;;6.13;3.70;;;17.10;1.00;;;;;;6317398;22;20374;-86
2021/08/17 13:50:08;;;;;;;6.03;3.20;;;17.10;1.00;;;;;;6316485;22;20530;-82
2021/08/17 13:52:40;;;;;;;8.60;4.20;;;17.10;1.00;;;;;;6316804;22;20537;-83
2021/08/17 13:55:09;;;;;;;7.17;3.60;;;17.20;1.00;;;;;;6316956;22;21443;-82
2021/08/17 13:57:58;;;;;;;5.27;3.33;;;17.30;1.00;;;;;;6340819;22;20367;-81
2021/08/17 14:00:28;;;;;;;6.50;3.50;;;17.30;1.00;;;;;;6313897;22;20447;-81
2021/08/17 14:02:59;;;;;;;7.73;2.60;;;17.30;1.00;;;;;;6344080;22;20391;-82
2021/08/17 14:05:37;;;;;;;4.50;2.87;;;17.30;1.00;;;;;;6319272;22;21166;-82
2021/08/17 14:08:06;;;;;;;9.37;3.50;;;17.40;1.00;;;;;;6352472;22;20747;-80
2021/08/17 14:10:36;;;;;;;6.23;3.90;;;17.50;1.00;;;;;;6342760;22;20376;-81
2021/08/17 14:13:08;;;;;;;7.10;3.27;;;17.60;1.00;;;;;;6315641;22;20932;-82
2021/08/17 14:18:21;;;;;;;6.57;3.97;;;17.40;1.00;;;;;;6340232;22;20414;-83
2021/08/17 14:20:52;;;;;;;10.57;4.10;;;17.50;1.00;;;;;;6322451;22;20392;-80
2021/08/17 14:23:29;;;;;;;4.90;3.83;;;17.70;1.00;;;;;;6331270;22;20445;-82
2021/08/17 14:25:58;;;;;;;7.23;3.63;;;17.90;1.00;;;;;;6331448;22;20368;-80
2021/08/17 14:28:29;;;;;;;6.17;3.40;;;18.30;1.00;;;;;;6330935;22;20425;-80
2021/08/17 14:30:59;;;;;;;9.03;4.43;;;18.70;1.00;;;;;;6328935;22;20485;-80
2021/08/17 14:33:31;;;;;;;7.30;4.10;;;19.40;1.00;;;;;;6323202;22;20410;-81
2021/08/17 14:36:06;;;;;;;5.87;3.90;;;20.00;1.00;;;;;;6350146;22;20424;-82
2021/08/17 14:38:40;;;;;;;6.90;3.93;;;20.40;1.00;;;;;;6346637;22;20361;-80
2021/08/17 14:41:13;;;;;;;7.00;3.27;;;20.70;1.00;;;;;;6319757;22;20411;-81
2021/08/17 14:43:43;;;;;;;4.63;3.13;;;20.60;1.00;;;;;;6347081;22;20419;-80
2021/08/17 14:46:18;;;;;;;6.63;3.80;;;20.40;1.00;;;;;;6321581;22;21271;-83
2021/08/17 14:48:50;;;;;;;9.40;4.67;;;20.30;1.00;;;;;;6345130;22;21494;-81
2021/08/17 14:51:18;;;;;;;6.20;3.50;;;20.20;1.00;;;;;;6319511;22;20413;-81
2021/08/17 14:53:49;;;;;;;6.80;5.10;;;20.30;1.00;;;;;;6322566;22;20366;-81
2021/08/17 14:56:29;;;;;;;5.17;3.70;;;20.40;1.00;;;;;;6320915;22;20378;-82
2021/08/17 14:59:07;;;;;;;6.53;3.23;;;20.30;1.00;;;;;;6353293;22;20346;-81
2021/08/17 15:01:40;;;;;;;5.87;4.03;;;20.30;1.00;;;;;;6344560;22;21152;-80
2021/08/17 15:04:19;;;;;;;6.07;4.13;;;20.40;1.00;;;;;;6320952;22;20503;-80
2021/08/17 15:06:48;;;;;;;6.00;4.20;;;20.20;1.00;;;;;;6323653;22;20414;-84
2021/08/17 15:09:26;;;;;;;5.67;3.87;;;20.00;1.00;;;;;;6305578;22;20362;-80
2021/08/17 15:11:59;;;;;;;6.73;4.47;;;20.00;1.00;;;;;;6346012;22;20376;-81
2021/08/17 15:14:29;;;;;;;6.07;3.70;;;20.00;1.00;;;;;;6340658;22;20472;-83
2021/08/17 15:16:56;;;;;;;4.80;3.70;;;20.00;1.00;;;;;;6319891;22;20437;-82
2021/08/17 15:25:36;;;;;;;8.30;4.93;;;19.10;1.00;;;;;;6350086;22;20417;-82
2021/08/17 15:28:20;;;;;;;8.73;5.00;;;18.90;1.00;;;;;;6317116;22;20370;-83
2021/08/17 15:31:06;;;;;;;6.67;4.30;;;18.90;1.00;;;;;;6359389;22;20545;-82
2021/08/17 15:33:42;;;;;;;6.90;4.50;;;18.90;1.00;;;;;;6322072;22;21600;-80
2021/08/17 15:36:26;;;;;;;6.33;5.17;;;19.20;1.00;;;;;;6313911;22;20413;-81
2021/08/17 15:39:01;;;;;;;6.10;4.07;;;19.70;1.00;;;;;;6344798;22;20402;-80
2021/08/17 15:41:36;;;;;;;7.30;4.10;;;19.60;1.00;;;;;;6314809;22;20835;-80
2021/08/17 15:44:04;;;;;;;6.07;4.67;;;19.50;1.00;;;;;;6318682;22;20411;-79
2021/08/17 15:46:47;;;;;;;8.90;4.43;;;19.50;1.00;;;;;;6346915;22;20396;-78
2021/08/17 15:49:36;;;;;;;6.37;5.00;;;19.90;1.00;;;;;;6323141;22;20406;-78
2021/08/17 15:52:14;;;;;;;7.60;5.30;;;20.20;1.00;;;;;;6317762;22;20414;-79
2021/08/17 15:55:02;;;;;;;7.53;6.20;;;20.00;1.00;;;;;;6344864;22;20413;-82
2021/08/17 15:57:30;;;;;;;8.40;5.23;;;19.80;1.00;;;;;;6315075;22;20517;-81
2021/08/17 16:00:14;;;;;;;6.10;4.80;;;19.90;1.00;;;;;;6324362;22;20396;-79
2021/08/17 16:02:58;;;;;;;7.93;5.67;;;19.90;1.00;;;;;;6355263;22;20404;-79
2021/08/17 16:05:47;;;;;;;9.70;6.47;;;19.60;1.00;;;;;;6319822;22;20385;-77
2021/08/17 16:08:24;;;;;;;8.23;6.10;;;19.40;1.00;;;;;;6330094;22;20409;-78
2021/08/17 16:11:07;;;;;;;7.70;5.70;;;19.10;1.00;;;;;;6355226;22;20426;-77
2021/08/17 16:14:16;;;;;;;8.87;6.30;;;19.10;1.00;;;;;;6331611;22;20370;-77
2021/08/17 16:16:44;;;;;;;7.10;5.93;;;19.00;1.00;;;;;;6335831;22;20381;-83
2021/08/17 16:19:12;;;;;;;7.77;6.20;;;18.90;1.00;;;;;;6354934;22;20503;-81
2021/08/17 16:21:42;;;;;;;11.37;8.03;;;18.80;1.00;;;;;;6348580;22;20949;-81
2021/08/17 16:24:18;;;;;;;9.57;7.73;;;18.80;1.00;;;;;;6321736;22;20401;-81
2021/08/17 16:26:52;;;;;;;9.57;6.80;;;18.80;1.00;;;;;;6325266;22;20420;-80
2021/08/17 16:29:22;;;;;;;9.20;6.37;;;18.80;1.00;;;;;;6321505;22;20374;-80
2021/08/17 16:31:49;;;;;;;11.40;7.77;;;18.70;1.00;;;;;;6320952;22;20448;-79
2021/08/17 16:34:16;;;;;;;9.13;6.70;;;18.70;1.00;;;;;;6352745;22;20383;-80
2021/08/17 16:36:44;;;;;;;12.90;7.70;;;18.60;1.00;;;;;;6355777;22;20354;-79
2021/08/17 16:39:15;;;;;;;9.37;7.40;;;18.60;1.00;;;;;;6351874;22;20708;-80
2021/08/17 16:41:50;;;;;;;10.57;6.60;;;18.60;1.00;;;;;;6348797;22;20405;-81
2021/08/17 16:44:21;;;;;;;11.23;6.87;;;18.60;1.00;;;;;;6312225;22;20405;-80
2021/08/17 16:47:02;;;;;;;9.30;6.70;;;18.60;1.00;;;;;;6353932;22;21627;-81
2021/08/17 16:49:35;;;;;;;13.63;7.63;;;18.60;1.00;;;;;;6327634;22;20354;-81
2021/08/17 16:52:09;;;;;;;10.83;7.10;;;18.60;1.00;;;;;;6323550;22;20452;-81
2021/08/17 16:54:58;;;;;;;9.13;7.30;;;18.60;1.00;;;;;;6353916;22;20353;-80
2021/08/17 16:57:30;;;;;;;11.27;7.80;;;18.50;1.00;;;;;;6315516;22;20385;-80
2021/08/17 17:03:01;;;;;;;11.33;7.63;;;18.50;1.00;;;;;;6298491;22;20503;-80
2021/08/17 17:05:33;;;;;;;10.63;8.03;;;18.40;1.00;;;;;;6349619;22;20381;-81
2021/08/17 17:08:21;;;;;;;11.90;8.67;;;18.40;1.00;;;;;;6312934;22;20454;-81
2021/08/17 17:11:02;;;;;;;9.50;8.47;;;18.30;1.00;;;;;;6344621;22;20385;-81
2021/08/17 17:13:35;;;;;;;13.03;8.93;;;18.30;1.00;;;;;;6346405;22;20458;-79
2021/08/17 17:16:25;;;;;;;11.90;8.83;;;18.10;1.00;;;;;;6346673;22;20417;-82
2021/08/17 17:19:04;;;;;;;13.77;8.80;;;17.90;1.00;;;;;;6322063;22;20408;-80
2021/08/17 17:21:38;;;;;;;11.77;9.03;;;17.90;1.00;;;;;;6321684;22;20345;-80
2021/08/17 17:24:14;;;;;;;11.43;8.57;;;17.70;1.00;;;;;;6345523;22;20392;-81
2021/08/17 17:27:11;;;;;;;10.43;8.23;;;17.50;1.00;;;;;;6358115;22;20335;-80
2021/08/17 17:29:45;;;;;;;16.63;9.27;;;17.20;1.00;;;;;;6321080;22;20986;-80
2021/08/17 17:35:16;;;;;;;13.83;9.17;;;16.70;1.00;;;;;;6308977;22;21659;-80
2021/08/17 17:37:56;;;;;;;12.50;8.57;;;16.60;1.00;;;;;;6317983;22;20372;-79
2021/08/17 17:40:38;;;;;;;11.77;9.30;;;16.50;1.00;;;;;;6321734;22;20390;-79
2021/08/17 17:46:16;;;;;;;13.47;9.73;;;16.40;1.00;;;;;;6326053;22;20423;-80
2021/08/17 17:48:51;;;;;;;11.47;9.47;;;16.40;1.00;;;;;;6325872;22;20529;-81
2021/08/17 17:51:36;;;;;;;15.77;9.67;;;16.30;1.00;;;;;;6308486;22;20414;-80
2021/08/17 17:54:14;;;;;;;11.50;9.27;;;16.30;1.00;;;;;;6318068;22;20537;-82
2021/08/17 17:56:49;;;;;;;13.63;10.33;;;16.30;1.00;;;;;;6316328;22;20398;-81
2021/08/17 17:59:28;;;;;;;14.13;10.40;;;16.30;1.00;;;;;;6344357;22;20384;-79
2021/08/17 18:02:11;;;;;;;14.37;9.70;;;16.20;1.00;;;;;;6315097;22;20398;-80
2021/08/17 18:04:43;;;;;;;11.23;8.30;;;16.20;1.00;;;;;;6315424;22;20505;-78
2021/08/17 18:07:25;;;;;;;12.13;9.30;;;16.20;1.00;;;;;;6311409;22;20410;-80
2021/08/17 18:10:04;;;;;;;13.53;8.60;;;16.20;1.00;;;;;;6318625;22;20475;-80
2021/08/17 18:12:53;;;;;;;14.03;9.70;;;16.20;1.00;;;;;;6339904;22;20439;-80
2021/08/17 18:15:29;;;;;;;9.67;8.67;;;16.10;1.00;;;;;;6342882;22;20413;-81